Time;durP1;ratioP1;P1;durP2;ratioP2;P2;SDS_P1;SDS_P2;PMS_P1;PMS_P2;Temp;Humidity;BMP_temperature;BMP_pressure;BME280_temperature;BME280_humidity;BME280_pressure;Samples;Min_cycle;Max_cycle;Signal;HPM_P1;HPM_P2
2021/11/28 00:01:15;;;;;;;10.43;6.63;;;4.30;99.90;;;;;;5032377;28;20474;-75
2021/11/28 00:03:41;;;;;;;11.27;6.83;;;4.30;99.90;;;;;;5032885;28;20411;-75
2021/11/28 00:06:26;;;;;;;9.47;6.97;;;4.30;99.90;;;;;;5032554;28;20485;-75
2021/11/28 00:11:43;;;;;;;11.63;6.70;;;4.30;99.90;;;;;;5034123;28;20515;-75
2021/11/28 00:14:11;;;;;;;10.50;5.93;;;4.20;99.90;;;;;;5032778;28;20515;-75
2021/11/28 00:16:37;;;;;;;8.80;6.47;;;4.30;99.90;;;;;;5032447;28;20814;-75
2021/11/28 00:19:04;;;;;;;7.60;5.50;;;4.30;99.90;;;;;;5032677;28;20506;-75
2021/11/28 00:21:31;;;;;;;13.07;6.20;;;4.30;99.90;;;;;;5032163;28;20471;-75
2021/11/28 00:23:57;;;;;;;9.63;6.57;;;4.30;99.90;;;;;;5032576;28;20757;-75
2021/11/28 00:26:23;;;;;;;14.43;7.00;;;4.40;99.90;;;;;;5032529;28;20478;-75
2021/11/28 00:28:49;;;;;;;6.53;5.70;;;4.40;99.90;;;;;;5032304;28;20755;-75
2021/11/28 00:31:14;;;;;;;8.80;5.70;;;4.40;99.90;;;;;;5032144;28;20577;-75
2021/11/28 00:33:41;;;;;;;9.03;6.47;;;4.40;99.90;;;;;;5032226;28;20988;-75
2021/11/28 00:36:07;;;;;;;13.03;10.10;;;4.40;99.90;;;;;;5032079;28;20335;-75
2021/11/28 00:38:33;;;;;;;9.40;6.77;;;4.50;99.90;;;;;;5032225;28;20411;-75
2021/11/28 00:40:58;;;;;;;8.03;5.43;;;4.50;99.90;;;;;;5031889;28;20466;-75
2021/11/28 00:43:24;;;;;;;8.83;6.20;;;4.40;99.90;;;;;;5032116;28;20178;-75
2021/11/28 00:45:50;;;;;;;10.43;7.37;;;4.50;99.90;;;;;;5032113;28;20234;-75
2021/11/28 00:48:16;;;;;;;8.90;6.60;;;4.50;99.90;;;;;;5032067;28;20507;-75
2021/11/28 00:50:47;;;;;;;7.90;5.80;;;4.40;99.90;;;;;;5031510;28;20267;-75
2021/11/28 00:53:16;;;;;;;10.50;6.47;;;4.40;99.90;;;;;;5032023;28;20424;-76
2021/11/28 00:55:41;;;;;;;6.20;4.83;;;4.40;99.90;;;;;;5031793;28;20425;-75
2021/11/28 00:58:08;;;;;;;8.23;5.83;;;4.30;99.90;;;;;;5031858;28;20985;-75
2021/11/28 01:00:34;;;;;;;8.40;6.10;;;4.40;99.90;;;;;;5031447;28;20648;-75
2021/11/28 01:03:00;;;;;;;8.20;5.73;;;4.50;99.90;;;;;;5031644;28;20437;-77
2021/11/28 01:05:26;;;;;;;8.50;5.37;;;4.50;99.90;;;;;;5031494;28;20519;-75
2021/11/28 01:07:51;;;;;;;9.70;6.00;;;4.50;99.90;;;;;;5031670;28;20514;-75
2021/11/28 01:10:18;;;;;;;9.63;5.57;;;4.60;99.90;;;;;;5032580;28;20173;-76
2021/11/28 01:12:44;;;;;;;7.00;5.37;;;4.50;99.90;;;;;;5031489;28;20498;-77
2021/11/28 01:15:11;;;;;;;7.13;5.03;;;4.50;99.90;;;;;;5031519;28;20841;-77
2021/11/28 01:17:38;;;;;;;7.53;5.90;;;4.50;99.90;;;;;;5031296;28;20447;-77
2021/11/28 01:20:05;;;;;;;6.50;4.80;;;4.50;99.90;;;;;;5031146;28;20427;-77
2021/11/28 01:22:31;;;;;;;9.20;6.03;;;4.50;99.90;;;;;;5031052;28;20561;-76
2021/11/28 01:24:57;;;;;;;13.10;5.73;;;4.60;99.90;;;;;;5031310;28;20509;-76
2021/11/28 01:27:23;;;;;;;9.57;5.30;;;4.60;99.90;;;;;;5030731;28;21092;-76
2021/11/28 01:29:49;;;;;;;13.27;6.90;;;4.70;99.90;;;;;;5031088;28;20914;-76
2021/11/28 01:32:18;;;;;;;11.20;7.50;;;4.70;99.90;;;;;;5031054;28;20448;-76
2021/11/28 01:34:44;;;;;;;9.33;6.00;;;4.70;99.90;;;;;;5031205;28;20194;-76
2021/11/28 01:37:10;;;;;;;8.27;5.80;;;4.70;99.90;;;;;;5030884;28;20448;-77
2021/11/28 01:39:35;;;;;;;9.93;5.60;;;4.80;99.90;;;;;;5030954;28;20427;-76
2021/11/28 01:42:02;;;;;;;9.80;6.00;;;4.70;99.90;;;;;;5031489;28;20241;-76
2021/11/28 01:44:28;;;;;;;8.20;5.70;;;4.70;99.90;;;;;;5030872;28;20181;-76
2021/11/28 01:46:55;;;;;;;8.17;5.30;;;4.80;99.90;;;;;;5030922;28;20437;-77
2021/11/28 01:49:21;;;;;;;7.77;5.27;;;4.80;99.90;;;;;;5030726;28;21009;-76
2021/11/28 01:51:47;;;;;;;7.60;4.80;;;4.80;99.90;;;;;;5030890;28;20450;-76
2021/11/28 01:54:14;;;;;;;9.30;5.80;;;4.80;99.90;;;;;;5030774;28;20502;-76
2021/11/28 01:56:42;;;;;;;7.87;5.60;;;4.80;99.90;;;;;;5030911;28;20566;-76
2021/11/28 01:59:09;;;;;;;8.20;5.53;;;4.80;99.90;;;;;;5030395;28;20427;-76
2021/11/28 02:01:35;;;;;;;9.37;6.57;;;4.80;99.90;;;;;;5030510;28;20479;-76
2021/11/28 02:04:02;;;;;;;8.23;4.90;;;4.80;99.90;;;;;;5030603;28;20417;-76
2021/11/28 02:06:28;;;;;;;7.77;5.50;;;4.70;99.90;;;;;;5030662;28;20456;-76
2021/11/28 02:08:55;;;;;;;7.73;4.73;;;4.70;99.90;;;;;;5031361;28;20437;-77
2021/11/28 02:11:21;;;;;;;11.57;6.17;;;4.80;99.90;;;;;;5030465;28;20981;-76
2021/11/28 02:13:47;;;;;;;9.07;5.90;;;4.70;99.90;;;;;;5030575;28;20415;-76
2021/11/28 02:16:14;;;;;;;8.07;5.10;;;4.70;99.90;;;;;;5030249;28;20282;-76
2021/11/28 02:18:40;;;;;;;5.90;4.83;;;4.70;99.90;;;;;;5030600;28;20431;-76
2021/11/28 02:21:09;;;;;;;8.07;5.10;;;4.70;99.90;;;;;;5030167;28;20479;-76
2021/11/28 02:23:36;;;;;;;6.87;4.60;;;4.60;99.90;;;;;;5030609;28;20526;-76
2021/11/28 02:26:06;;;;;;;11.33;5.80;;;4.60;99.90;;;;;;5030397;28;20499;-76
2021/11/28 02:28:33;;;;;;;6.10;4.97;;;4.60;99.90;;;;;;5030518;28;20429;-76
2021/11/28 02:30:59;;;;;;;7.03;5.20;;;4.60;99.90;;;;;;5030063;28;20440;-76
2021/11/28 02:33:25;;;;;;;9.03;5.60;;;4.50;99.90;;;;;;5030504;28;20422;-76
2021/11/28 02:35:51;;;;;;;10.03;5.57;;;4.50;99.90;;;;;;5030368;28;20435;-76
2021/11/28 02:38:17;;;;;;;9.07;5.73;;;4.40;99.90;;;;;;5030524;28;20428;-76
2021/11/28 02:40:44;;;;;;;7.40;5.93;;;4.40;99.90;;;;;;5033567;28;20863;-76
2021/11/28 02:43:10;;;;;;;7.90;5.70;;;4.40;99.90;;;;;;5034266;28;20416;-76
2021/11/28 02:45:37;;;;;;;8.20;4.93;;;4.40;99.90;;;;;;5034458;28;20557;-76
2021/11/28 02:48:08;;;;;;;7.80;5.70;;;4.40;99.90;;;;;;5034172;28;20922;-76
2021/11/28 02:50:34;;;;;;;7.57;5.00;;;4.30;99.90;;;;;;5034175;28;20869;-76
2021/11/28 02:53:02;;;;;;;6.33;5.33;;;4.30;99.90;;;;;;5033974;28;20586;-76
2021/11/28 02:55:34;;;;;;;6.60;4.40;;;4.20;99.90;;;;;;5034212;28;21026;-76
2021/11/28 02:58:00;;;;;;;7.40;5.20;;;4.20;99.90;;;;;;5033956;28;20431;-77
2021/11/28 03:00:29;;;;;;;7.83;5.63;;;4.10;99.90;;;;;;5033943;28;20481;-76
2021/11/28 03:02:55;;;;;;;6.07;4.43;;;4.10;99.90;;;;;;5033808;28;20477;-76
2021/11/28 03:05:21;;;;;;;10.90;5.40;;;4.10;99.90;;;;;;5033874;28;20988;-76
2021/11/28 03:07:47;;;;;;;7.07;5.50;;;4.10;99.90;;;;;;5033990;28;20426;-76
2021/11/28 03:10:34;;;;;;;7.43;4.80;;;4.10;99.90;;;;;;5033809;28;20220;-76
2021/11/28 03:13:01;;;;;;;8.10;5.23;;;4.10;99.90;;;;;;5033765;28;20447;-76
2021/11/28 03:15:27;;;;;;;12.80;5.47;;;4.00;99.90;;;;;;5033707;28;20428;-76
2021/11/28 03:17:54;;;;;;;7.17;5.27;;;4.00;99.90;;;;;;5033835;28;20549;-77
2021/11/28 03:20:20;;;;;;;8.43;5.20;;;4.00;99.90;;;;;;5033367;28;20421;-76
2021/11/28 03:22:50;;;;;;;8.27;5.80;;;3.90;99.90;;;;;;5033422;28;20455;-76
2021/11/28 03:25:18;;;;;;;9.90;6.40;;;4.00;99.90;;;;;;5033510;28;20423;-76
2021/11/28 03:27:45;;;;;;;7.07;4.80;;;4.00;99.90;;;;;;5033590;28;20506;-76
2021/11/28 03:30:12;;;;;;;9.00;5.97;;;4.10;99.90;;;;;;5033376;28;20458;-76
2021/11/28 03:32:38;;;;;;;7.27;5.73;;;4.10;99.90;;;;;;5033254;28;20490;-76
2021/11/28 03:35:04;;;;;;;8.60;5.50;;;4.10;99.90;;;;;;5033490;28;20467;-77
2021/11/28 03:37:30;;;;;;;10.50;5.67;;;4.20;99.90;;;;;;5033068;28;20642;-76
2021/11/28 03:39:57;;;;;;;7.90;5.47;;;4.20;99.90;;;;;;5033216;28;20488;-76
2021/11/28 03:42:23;;;;;;;8.53;6.03;;;4.10;99.90;;;;;;5032980;28;20471;-76
2021/11/28 03:44:49;;;;;;;7.23;4.63;;;4.10;99.90;;;;;;5033242;28;20441;-76
2021/11/28 03:47:15;;;;;;;7.27;5.17;;;4.20;99.90;;;;;;5032934;28;20222;-76
2021/11/28 03:49:41;;;;;;;11.57;5.63;;;4.20;99.90;;;;;;5032666;28;20429;-77
2021/11/28 03:52:08;;;;;;;10.30;6.23;;;4.20;99.90;;;;;;5032816;28;20452;-76
2021/11/28 03:54:34;;;;;;;12.97;8.20;;;4.10;99.90;;;;;;5033018;28;20421;-76
2021/11/28 03:57:05;;;;;;;16.73;7.90;;;4.10;99.90;;;;;;5033176;28;20434;-76
2021/11/28 03:59:31;;;;;;;12.67;7.70;;;4.10;99.90;;;;;;5032701;28;20484;-76
2021/11/28 04:01:57;;;;;;;8.93;6.00;;;4.10;99.90;;;;;;5032833;28;20471;-76
2021/11/28 04:04:22;;;;;;;8.10;5.90;;;4.10;99.90;;;;;;5032706;28;20474;-76
2021/11/28 04:06:48;;;;;;;9.83;5.70;;;4.20;99.90;;;;;;5032883;28;20926;-77
2021/11/28 04:09:14;;;;;;;8.57;5.50;;;4.30;99.90;;;;;;5032794;28;20194;-77
2021/11/28 04:11:40;;;;;;;10.30;5.20;;;4.30;99.90;;;;;;5032720;28;20579;-76
2021/11/28 04:14:06;;;;;;;7.93;5.53;;;4.20;99.90;;;;;;5032543;28;20431;-76
2021/11/28 04:16:33;;;;;;;8.70;6.13;;;4.30;99.90;;;;;;5032722;28;20439;-76
2021/11/28 04:18:59;;;;;;;9.10;5.30;;;4.20;99.90;;;;;;5025463;28;20502;-76
2021/11/28 04:21:27;;;;;;;6.67;4.70;;;4.30;99.90;;;;;;5026425;28;20560;-76
2021/11/28 04:23:53;;;;;;;6.30;4.47;;;4.30;99.90;;;;;;5020789;28;20502;-76
2021/11/28 04:26:20;;;;;;;7.80;5.33;;;4.40;99.90;;;;;;5025888;28;20919;-77
2021/11/28 04:28:47;;;;;;;7.70;5.03;;;4.40;99.90;;;;;;5032637;28;20455;-77
2021/11/28 04:31:13;;;;;;;7.60;5.37;;;4.40;99.90;;;;;;5032007;28;20440;-77
2021/11/28 04:33:40;;;;;;;7.47;5.27;;;4.50;99.90;;;;;;5032401;28;20419;-76
2021/11/28 04:36:07;;;;;;;7.20;5.20;;;4.50;99.90;;;;;;5032039;28;20443;-76
2021/11/28 04:38:33;;;;;;;6.07;4.20;;;4.50;99.90;;;;;;5017264;28;20536;-76
2021/11/28 04:40:58;;;;;;;6.30;4.57;;;4.50;99.90;;;;;;5011967;28;20977;-76
2021/11/28 04:43:24;;;;;;;9.97;5.70;;;4.50;99.90;;;;;;5012500;28;20182;-76
2021/11/28 04:45:50;;;;;;;7.67;5.33;;;4.60;99.90;;;;;;5012312;28;20184;-76
2021/11/28 04:48:17;;;;;;;6.93;4.43;;;4.60;99.90;;;;;;5012361;28;20275;-76
2021/11/28 04:50:43;;;;;;;6.30;4.63;;;4.60;99.90;;;;;;5011979;28;20851;-77
2021/11/28 04:53:09;;;;;;;5.03;4.20;;;4.50;99.90;;;;;;5012273;28;20447;-76
2021/11/28 04:55:35;;;;;;;7.87;5.00;;;4.50;99.90;;;;;;5012220;28;20422;-76
2021/11/28 04:58:02;;;;;;;10.20;4.87;;;4.50;99.90;;;;;;5012066;28;20413;-76
2021/11/28 05:00:28;;;;;;;6.47;4.43;;;4.50;99.90;;;;;;5011931;28;20429;-77
2021/11/28 05:02:55;;;;;;;7.03;5.03;;;4.50;99.90;;;;;;5010904;28;20479;-77
2021/11/28 05:05:23;;;;;;;8.40;5.10;;;4.50;99.90;;;;;;5012171;28;20456;-77
2021/11/28 05:07:49;;;;;;;8.33;5.33;;;4.50;99.90;;;;;;5011891;28;20426;-77
2021/11/28 05:10:15;;;;;;;8.17;5.00;;;4.50;99.90;;;;;;5011762;28;21039;-77
2021/11/28 05:12:41;;;;;;;10.03;4.70;;;4.50;99.90;;;;;;5011841;28;20229;-77
2021/11/28 05:15:08;;;;;;;7.17;5.23;;;4.50;99.90;;;;;;5011970;28;20420;-76
2021/11/28 05:17:34;;;;;;;10.07;4.77;;;4.50;99.90;;;;;;5011642;28;20424;-77
2021/11/28 05:20:00;;;;;;;6.33;4.90;;;4.50;99.90;;;;;;5011617;28;20432;-76
2021/11/28 05:22:26;;;;;;;6.90;4.80;;;4.50;99.90;;;;;;5011695;28;20763;-76
2021/11/28 05:24:52;;;;;;;5.80;4.10;;;4.50;99.90;;;;;;5011545;28;20507;-77
2021/11/28 05:27:19;;;;;;;6.00;4.60;;;4.60;99.90;;;;;;5011724;28;20469;-76
2021/11/28 05:29:46;;;;;;;5.70;4.60;;;4.60;99.90;;;;;;5011296;28;20184;-77
2021/11/28 05:32:12;;;;;;;8.03;4.53;;;4.60;99.90;;;;;;5011593;28;20813;-76
2021/11/28 05:34:38;;;;;;;7.50;4.83;;;4.60;99.90;;;;;;5011509;28;20424;-76
2021/11/28 05:37:04;;;;;;;7.27;5.00;;;4.60;99.90;;;;;;5037311;22;20698;-85
2021/11/28 05:39:29;;;;;;;7.33;5.17;;;4.60;99.90;;;;;;5029524;28;20441;-84
2021/11/28 05:41:55;;;;;;;8.53;5.30;;;4.50;99.90;;;;;;5031410;28;20464;-84
2021/11/28 05:44:21;;;;;;;7.13;4.50;;;4.50;99.90;;;;;;5034698;28;20278;-84
2021/11/28 05:46:47;;;;;;;7.17;4.77;;;4.50;99.90;;;;;;5031984;28;20863;-84
2021/11/28 05:49:12;;;;;;;5.90;4.80;;;4.60;99.90;;;;;;5034131;28;20197;-83
2021/11/28 05:51:38;;;;;;;6.90;4.50;;;4.50;99.90;;;;;;5039341;28;20208;-84
2021/11/28 05:54:03;;;;;;;7.00;4.77;;;4.50;99.90;;;;;;5042354;28;20267;-84
2021/11/28 05:56:29;;;;;;;7.10;5.30;;;4.50;99.90;;;;;;5051012;28;20186;-84
2021/11/28 05:58:56;;;;;;;6.80;4.93;;;4.60;99.90;;;;;;5052518;28;20215;-84
2021/11/28 06:01:21;;;;;;;9.67;5.60;;;4.60;99.90;;;;;;5050517;28;20457;-84
2021/11/28 06:03:47;;;;;;;8.17;4.97;;;4.60;99.90;;;;;;5052570;28;20414;-84
2021/11/28 06:06:13;;;;;;;6.63;5.10;;;4.70;99.90;;;;;;5050869;28;20430;-83
2021/11/28 06:08:38;;;;;;;7.63;4.83;;;4.70;99.90;;;;;;5051174;28;20225;-84
2021/11/28 06:11:04;;;;;;;7.13;4.53;;;4.70;99.90;;;;;;5050634;28;20549;-84
2021/11/28 06:13:30;;;;;;;7.90;4.97;;;4.70;99.90;;;;;;5050933;28;20234;-84
2021/11/28 06:15:55;;;;;;;6.27;4.70;;;4.70;99.90;;;;;;5050717;28;20183;-84
2021/11/28 06:18:21;;;;;;;10.60;4.70;;;4.70;99.90;;;;;;5050863;28;20803;-84
2021/11/28 06:20:47;;;;;;;7.40;4.67;;;4.70;99.90;;;;;;5050422;28;20180;-84
2021/11/28 06:23:13;;;;;;;9.00;5.47;;;4.80;99.90;;;;;;5050757;28;20215;-84
2021/11/28 06:25:39;;;;;;;7.40;4.83;;;4.80;99.90;;;;;;5052067;28;20502;-84
2021/11/28 06:28:05;;;;;;;6.73;4.70;;;4.80;99.90;;;;;;5050630;28;21057;-84
2021/11/28 06:30:31;;;;;;;8.03;4.73;;;4.80;99.90;;;;;;5050683;28;20180;-84
2021/11/28 06:32:57;;;;;;;7.10;4.97;;;4.70;99.90;;;;;;5050520;28;20193;-84
2021/11/28 06:35:23;;;;;;;9.67;5.67;;;4.80;99.90;;;;;;5052059;28;20407;-84
2021/11/28 06:37:49;;;;;;;9.23;5.10;;;4.80;99.90;;;;;;5050546;28;20534;-84
2021/11/28 06:40:15;;;;;;;6.47;4.57;;;4.80;99.90;;;;;;5050391;28;20234;-84
2021/11/28 06:42:40;;;;;;;7.13;4.60;;;4.80;99.90;;;;;;5050382;28;20210;-84
2021/11/28 06:45:06;;;;;;;9.00;4.97;;;4.80;99.90;;;;;;5050630;28;20969;-84
2021/11/28 06:47:32;;;;;;;6.67;4.70;;;4.80;99.90;;;;;;5050379;28;20201;-83
2021/11/28 06:49:58;;;;;;;6.30;4.70;;;4.80;99.90;;;;;;5050485;28;20413;-84
2021/11/28 06:52:23;;;;;;;8.50;5.67;;;4.80;99.90;;;;;;5050298;28;20713;-84
2021/11/28 06:54:49;;;;;;;6.27;5.00;;;4.80;99.90;;;;;;5051813;28;20176;-84
2021/11/28 06:57:14;;;;;;;8.57;5.20;;;4.70;99.90;;;;;;5050258;28;20684;-84
2021/11/28 06:59:40;;;;;;;6.93;4.83;;;4.70;99.90;;;;;;5050130;28;20655;-83
2021/11/28 07:02:06;;;;;;;6.03;4.30;;;4.70;99.90;;;;;;5050164;28;20631;-84
2021/11/28 07:04:31;;;;;;;8.50;4.97;;;4.80;99.90;;;;;;5050366;28;20276;-84
2021/11/28 07:06:57;;;;;;;7.00;4.87;;;4.80;99.90;;;;;;5050025;28;20258;-84
2021/11/28 07:09:23;;;;;;;6.10;4.83;;;4.80;99.90;;;;;;5050349;28;20237;-83
2021/11/28 07:11:49;;;;;;;8.83;5.27;;;4.80;99.90;;;;;;5050159;28;20224;-83
2021/11/28 07:14:15;;;;;;;10.07;5.70;;;4.80;99.90;;;;;;5050154;28;20603;-84
2021/11/28 07:16:41;;;;;;;7.70;5.10;;;4.80;99.90;;;;;;5051535;28;20427;-84
2021/11/28 07:19:06;;;;;;;7.53;5.20;;;4.80;99.90;;;;;;5050009;28;20864;-84
2021/11/28 07:21:33;;;;;;;7.63;4.87;;;4.80;99.90;;;;;;5034110;28;20218;-84
2021/11/28 07:23:59;;;;;;;8.90;5.43;;;4.80;99.90;;;;;;5010412;28;20192;-83
2021/11/28 07:26:24;;;;;;;8.33;5.30;;;4.80;99.90;;;;;;5013211;28;20422;-84
2021/11/28 07:28:50;;;;;;;7.73;5.37;;;4.80;99.90;;;;;;5013892;28;20201;-84
2021/11/28 07:31:16;;;;;;;7.73;5.60;;;4.80;99.90;;;;;;5014027;28;20204;-84
2021/11/28 07:33:41;;;;;;;10.60;5.77;;;4.70;99.90;;;;;;5015211;28;20644;-85
2021/11/28 07:36:08;;;;;;;8.90;5.90;;;4.70;99.90;;;;;;5015715;28;20232;-83
2021/11/28 07:38:35;;;;;;;8.57;5.10;;;4.70;99.90;;;;;;5013625;28;20302;-83
2021/11/28 07:41:01;;;;;;;8.87;5.20;;;4.60;99.90;;;;;;5013446;28;20782;-84
2021/11/28 07:43:27;;;;;;;8.37;6.23;;;4.60;99.90;;;;;;5013826;28;20426;-84
2021/11/28 07:45:53;;;;;;;9.50;5.27;;;4.60;99.90;;;;;;5013837;28;20424;-84
2021/11/28 07:48:19;;;;;;;8.60;5.20;;;4.60;99.90;;;;;;5013441;28;20818;-84
2021/11/28 07:50:45;;;;;;;8.90;4.90;;;4.60;99.90;;;;;;5013406;28;20420;-85
2021/11/28 07:53:11;;;;;;;8.50;5.77;;;4.60;99.90;;;;;;5014676;28;20447;-84
2021/11/28 07:55:36;;;;;;;8.30;5.67;;;4.60;99.90;;;;;;5013587;28;20715;-84
2021/11/28 07:58:03;;;;;;;6.93;5.27;;;4.60;99.90;;;;;;5013381;28;20297;-84
2021/11/28 08:00:29;;;;;;;10.30;6.47;;;4.60;99.90;;;;;;5013307;28;20183;-84
2021/11/28 08:02:55;;;;;;;8.57;4.70;;;4.60;99.90;;;;;;5013287;28;20907;-84
2021/11/28 08:05:21;;;;;;;7.00;4.97;;;4.70;99.90;;;;;;5013324;28;20421;-84
2021/11/28 08:07:46;;;;;;;9.43;5.67;;;4.70;99.90;;;;;;5013218;28;20627;-84
2021/11/28 08:10:12;;;;;;;10.53;6.23;;;4.80;99.90;;;;;;5013069;28;20417;-83
2021/11/28 08:12:38;;;;;;;7.17;5.30;;;4.80;99.90;;;;;;5013237;28;20239;-84
2021/11/28 08:15:07;;;;;;;7.30;5.77;;;4.80;99.90;;;;;;5014279;28;20425;-84
2021/11/28 08:17:37;;;;;;;7.77;5.30;;;4.90;99.90;;;;;;5013151;28;20206;-83
2021/11/28 08:20:06;;;;;;;7.77;6.07;;;4.80;99.90;;;;;;5012746;28;20428;-83
2021/11/28 08:22:32;;;;;;;8.93;5.20;;;4.90;99.90;;;;;;5012957;28;20557;-83
2021/11/28 08:24:58;;;;;;;8.23;4.57;;;4.90;99.90;;;;;;5012886;28;20508;-83
2021/11/28 08:27:24;;;;;;;8.80;5.93;;;4.90;99.90;;;;;;5029793;28;20205;-84
2021/11/28 08:29:51;;;;;;;9.70;6.97;;;4.90;99.90;;;;;;5024999;28;20445;-84
2021/11/28 08:32:17;;;;;;;7.80;5.90;;;5.00;99.90;;;;;;5034089;28;20175;-84
2021/11/28 08:34:43;;;;;;;7.93;5.87;;;5.00;99.90;;;;;;5032576;28;20426;-84
2021/11/28 08:37:09;;;;;;;7.77;5.70;;;5.00;99.90;;;;;;5032681;28;20684;-83
2021/11/28 08:39:36;;;;;;;8.17;5.90;;;5.10;99.90;;;;;;5032545;28;20418;-83
2021/11/28 08:42:07;;;;;;;6.97;5.30;;;5.00;99.90;;;;;;5032652;28;20462;-84
2021/11/28 08:44:32;;;;;;;8.13;5.60;;;5.00;99.90;;;;;;5032679;28;20502;-84
2021/11/28 08:46:58;;;;;;;6.60;5.37;;;5.00;99.90;;;;;;5032336;28;20568;-84
2021/11/28 08:49:23;;;;;;;8.00;5.30;;;5.10;99.90;;;;;;5032610;28;20190;-84
2021/11/28 08:51:49;;;;;;;13.47;5.30;;;5.10;99.90;;;;;;5033876;28;20235;-84
2021/11/28 08:54:15;;;;;;;8.70;5.23;;;5.20;99.90;;;;;;5033893;28;20186;-84
2021/11/28 08:56:42;;;;;;;8.63;5.73;;;5.20;99.90;;;;;;5033702;28;20186;-84
2021/11/28 08:59:08;;;;;;;7.10;5.30;;;5.20;99.90;;;;;;5033425;28;20224;-83
2021/11/28 09:01:34;;;;;;;7.13;5.27;;;5.20;99.90;;;;;;5032021;28;20456;-83
2021/11/28 09:03:59;;;;;;;8.00;5.97;;;5.30;99.90;;;;;;5032161;28;20425;-84
2021/11/28 09:06:25;;;;;;;6.70;4.80;;;5.30;99.90;;;;;;5033635;28;20175;-84
2021/11/28 09:08:50;;;;;;;11.83;6.90;;;5.30;99.90;;;;;;5031923;28;20192;-84
2021/11/28 09:11:17;;;;;;;8.10;5.53;;;5.30;99.90;;;;;;5032226;28;20236;-84
2021/11/28 09:13:42;;;;;;;7.67;5.43;;;5.30;99.90;;;;;;5032683;28;20183;-84
2021/11/28 09:16:10;;;;;;;10.67;5.07;;;5.30;99.90;;;;;;5032177;28;20417;-83
2021/11/28 09:18:41;;;;;;;10.30;6.53;;;5.30;99.90;;;;;;5032212;28;20207;-84
2021/11/28 09:21:08;;;;;;;7.90;5.20;;;5.30;99.90;;;;;;5031951;28;20472;-83
2021/11/28 09:26:18;;;;;;;8.73;6.33;;;5.20;99.90;;;;;;5033544;28;20402;-84
2021/11/28 09:28:43;;;;;;;9.73;6.70;;;5.30;99.90;;;;;;5031758;28;20448;-85
2021/11/28 09:31:10;;;;;;;7.63;6.20;;;5.30;99.90;;;;;;5031665;28;20188;-83
2021/11/28 09:33:37;;;;;;;7.40;5.80;;;5.30;99.90;;;;;;5031888;28;20676;-83
2021/11/28 09:36:03;;;;;;;7.60;5.83;;;5.40;99.90;;;;;;5032002;28;20920;-84
2021/11/28 09:38:29;;;;;;;9.30;6.50;;;5.40;99.90;;;;;;5031542;28;20468;-82
2021/11/28 09:40:56;;;;;;;8.93;5.80;;;5.40;99.90;;;;;;5032368;28;20514;-84
2021/11/28 09:43:24;;;;;;;8.23;5.90;;;5.40;99.90;;;;;;5031718;28;20186;-84
2021/11/28 09:45:52;;;;;;;7.80;5.57;;;5.40;99.90;;;;;;5031536;28;20499;-83
2021/11/28 09:48:24;;;;;;;9.60;6.43;;;5.40;99.90;;;;;;5030997;28;20509;-83
2021/11/28 09:50:50;;;;;;;10.43;7.03;;;5.40;99.90;;;;;;5032310;28;20417;-84
2021/11/28 09:53:17;;;;;;;10.37;6.80;;;5.40;99.90;;;;;;5032433;28;20829;-84
2021/11/28 09:55:43;;;;;;;10.73;6.73;;;5.50;99.90;;;;;;5032230;28;20418;-84
2021/11/28 09:58:09;;;;;;;12.07;7.33;;;5.40;99.90;;;;;;5031166;28;20499;-84
2021/11/28 10:00:36;;;;;;;11.20;7.23;;;5.40;99.90;;;;;;5030714;28;20864;-84
2021/11/28 10:03:03;;;;;;;10.97;7.73;;;5.40;99.90;;;;;;5030705;28;20468;-84
2021/11/28 10:05:28;;;;;;;9.77;6.97;;;5.50;99.90;;;;;;5030798;28;20425;-84
2021/11/28 10:07:54;;;;;;;11.47;7.47;;;5.60;99.90;;;;;;5030862;28;20880;-83
2021/11/28 10:10:21;;;;;;;12.07;8.97;;;5.70;99.90;;;;;;5030489;28;20185;-83
2021/11/28 10:12:52;;;;;;;13.60;7.30;;;5.60;99.90;;;;;;5030933;28;20190;-83
2021/11/28 10:15:27;;;;;;;12.10;8.40;;;5.50;99.90;;;;;;5030898;28;20825;-83
2021/11/28 10:17:54;;;;;;;12.70;8.70;;;5.70;99.90;;;;;;5030654;28;20981;-84
2021/11/28 10:20:23;;;;;;;13.83;8.20;;;5.70;99.90;;;;;;5031936;28;20415;-84
2021/11/28 10:22:50;;;;;;;11.53;7.70;;;5.70;99.90;;;;;;5030459;28;20543;-84
2021/11/28 10:25:29;;;;;;;9.40;6.90;;;5.80;99.90;;;;;;5032011;28;20472;-83
2021/11/28 10:27:54;;;;;;;10.30;6.93;;;6.00;99.90;;;;;;5030709;28;20445;-82
2021/11/28 10:30:29;;;;;;;12.50;8.20;;;6.10;99.90;;;;;;5030522;28;20426;-83
2021/11/28 10:33:02;;;;;;;12.00;8.17;;;6.10;99.90;;;;;;5030419;28;20186;-84
2021/11/28 10:35:28;;;;;;;12.57;7.87;;;6.00;99.90;;;;;;5030726;28;20432;-83
2021/11/28 10:37:54;;;;;;;11.50;7.50;;;5.80;99.90;;;;;;5030379;28;20457;-84
2021/11/28 10:40:23;;;;;;;10.47;7.10;;;5.90;99.90;;;;;;5030475;28;20188;-83
2021/11/28 10:42:51;;;;;;;8.97;7.10;;;6.00;99.90;;;;;;5030565;28;20262;-83
2021/11/28 10:45:20;;;;;;;11.27;6.93;;;6.10;99.90;;;;;;5032547;28;20425;-84
2021/11/28 10:47:56;;;;;;;10.47;7.33;;;6.30;99.90;;;;;;5030584;28;20775;-84
2021/11/28 10:50:30;;;;;;;11.27;8.57;;;6.30;99.90;;;;;;5030718;28;20809;-83
2021/11/28 10:53:15;;;;;;;12.23;7.33;;;6.50;99.90;;;;;;5030668;28;20526;-83
2021/11/28 10:55:42;;;;;;;9.53;6.83;;;6.50;99.90;;;;;;5030660;28;20445;-83
2021/11/28 10:58:11;;;;;;;9.90;6.60;;;6.50;99.90;;;;;;5031775;28;20918;-84
2021/11/28 11:00:39;;;;;;;12.03;7.80;;;6.40;99.90;;;;;;5031894;28;20919;-83
2021/11/28 11:03:29;;;;;;;11.47;7.30;;;6.40;99.90;;;;;;5035360;28;20468;-82
2021/11/28 11:06:16;;;;;;;11.90;8.00;;;6.60;99.90;;;;;;5034602;28;20494;-83
2021/11/28 11:08:42;;;;;;;11.70;6.80;;;6.70;99.90;;;;;;5034340;28;20453;-83
2021/11/28 11:11:13;;;;;;;10.80;6.53;;;6.60;99.90;;;;;;5035592;28;20414;-84
2021/11/28 11:14:00;;;;;;;11.23;7.60;;;6.70;99.90;;;;;;5034379;28;20558;-84
2021/11/28 11:16:35;;;;;;;10.50;7.10;;;6.50;99.90;;;;;;5034271;28;20518;-83
2021/11/28 11:19:23;;;;;;;13.63;8.63;;;6.70;99.90;;;;;;5034010;28;20438;-82
2021/11/28 11:22:05;;;;;;;14.00;8.53;;;6.80;99.90;;;;;;5035415;28;20462;-84
2021/11/28 11:24:31;;;;;;;12.13;8.90;;;7.00;99.90;;;;;;5033830;28;20419;-83
2021/11/28 11:27:16;;;;;;;13.93;8.40;;;7.20;99.90;;;;;;5034163;28;20765;-84
2021/11/28 11:29:48;;;;;;;11.30;7.50;;;7.90;99.90;;;;;;5035297;28;20407;-84
2021/11/28 11:32:15;;;;;;;11.50;8.67;;;8.10;99.90;;;;;;5033995;28;20819;-84
2021/11/28 11:35:03;;;;;;;14.37;8.43;;;9.40;99.90;;;;;;5034041;28;20782;-83
2021/11/28 11:40:13;;;;;;;12.07;9.13;;;10.40;99.90;;;;;;4842546;22;20872;-78
2021/11/28 11:42:42;;;;;;;13.83;9.70;;;10.10;99.90;;;;;;5053993;28;20579;-78
2021/11/28 11:45:12;;;;;;;13.30;9.30;;;9.80;99.90;;;;;;5037142;28;20430;-78
2021/11/28 11:47:39;;;;;;;13.97;9.40;;;9.60;99.90;;;;;;5037455;28;20416;-78
2021/11/28 11:50:06;;;;;;;14.23;10.70;;;9.50;99.90;;;;;;5037171;28;20844;-78
2021/11/28 11:52:33;;;;;;;15.20;10.83;;;8.80;99.90;;;;;;5053204;28;20435;-78
2021/11/28 11:55:10;;;;;;;12.67;10.20;;;8.50;99.90;;;;;;5054188;28;20497;-77
2021/11/28 11:57:50;;;;;;;14.60;10.17;;;8.10;99.90;;;;;;5053202;28;20426;-78
2021/11/28 12:00:58;;;;;;;14.83;10.37;;;8.20;99.90;;;;;;5053359;28;20865;-77
2021/11/28 12:03:24;;;;;;;16.03;10.67;;;8.10;99.90;;;;;;5053127;28;20431;-77
2021/11/28 12:05:52;;;;;;;15.83;10.90;;;7.80;99.90;;;;;;5053347;28;20854;-78
2021/11/28 12:08:22;;;;;;;16.20;11.37;;;7.90;99.90;;;;;;5052883;28;20506;-77
2021/11/28 12:11:12;;;;;;;17.23;11.63;;;7.90;99.90;;;;;;5036338;28;20980;-78
2021/11/28 12:13:40;;;;;;;16.10;10.97;;;7.80;99.90;;;;;;5052373;28;20415;-77
2021/11/28 12:16:11;;;;;;;15.37;10.83;;;7.70;99.90;;;;;;5025126;28;20954;-78
2021/11/28 12:18:38;;;;;;;17.73;12.43;;;7.50;99.90;;;;;;5024488;28;20433;-77
2021/11/28 12:21:09;;;;;;;15.33;10.33;;;7.50;99.90;;;;;;5035181;28;20481;-78
2021/11/28 12:23:54;;;;;;;15.20;11.13;;;7.30;99.90;;;;;;5036413;28;20434;-77
2021/11/28 12:26:29;;;;;;;14.23;10.20;;;7.40;99.90;;;;;;5029989;28;20477;-78
2021/11/28 12:29:13;;;;;;;17.13;11.70;;;7.20;99.90;;;;;;5036941;28;20423;-78
2021/11/28 12:31:46;;;;;;;16.33;10.20;;;7.30;99.90;;;;;;5036100;28;20435;-78
2021/11/28 12:34:19;;;;;;;17.03;11.43;;;7.60;99.90;;;;;;5036658;28;20796;-78
2021/11/28 12:36:47;;;;;;;14.70;10.17;;;7.80;99.90;;;;;;5035899;28;20423;-78
2021/11/28 12:39:16;;;;;;;15.77;10.13;;;9.10;99.90;;;;;;5052563;28;20489;-78
2021/11/28 12:44:18;;;;;;;16.53;12.50;;;8.70;99.90;;;;;;5037841;28;20407;-77
2021/11/28 12:46:47;;;;;;;19.30;12.40;;;8.30;99.90;;;;;;5052871;28;20421;-78
2021/11/28 12:49:49;;;;;;;16.30;10.77;;;8.20;99.90;;;;;;5052905;28;20451;-78
2021/11/28 12:52:17;;;;;;;15.33;10.70;;;8.90;99.90;;;;;;5052881;28;20438;-77
2021/11/28 12:55:09;;;;;;;18.03;11.70;;;10.60;99.90;;;;;;5036228;28;20494;-78
2021/11/28 12:58:03;;;;;;;16.43;11.73;;;11.60;99.90;;;;;;5027021;28;20423;-78
2021/11/28 13:00:39;;;;;;;15.00;9.47;;;10.90;99.90;;;;;;5027782;28;20435;-78
2021/11/28 13:03:08;;;;;;;16.70;9.70;;;9.60;99.90;;;;;;5034936;28;20549;-78
2021/11/28 13:05:39;;;;;;;15.30;10.27;;;8.70;99.90;;;;;;5036439;28;20999;-78
2021/11/28 13:08:05;;;;;;;13.70;9.10;;;8.40;99.90;;;;;;5037099;28;20483;-78